Riley, Indiana
Current Conditions -  °F | °C
As of 12:53 AM on Monday 24 Nov 2014 (Local Time) from KHUF Reporting Station
Overcast Overcast  
Wind Chill: 55°   Ceiling: 600
Heat Index: 55°   Visibility: 10mi
Dew Point: 52°   Wind: 15mph
Humidity: 89%   Direction: 220°SW
Pressure: 29.23"   Gusts: 23mph
Location:  39.39°N, 87.3°W
Report Text: KHUF 240553Z 22013G20KT 10SM OVC006 13/11 A2923 RMK AO2 RAB33E46 SLP898 P0000 60071 T01280111 10128 20111 53012 $
Loading
Personal Weather Stations






























Interactive Weather Map New forecast layout! Learn more

10-Day Weather Forecast

Advertisements
Track Severe Weather on mobile